sensor_id;sensor_type;location;lat;lon;timestamp;P1;durP1;ratioP1;P2;durP2;ratioP2
2652;SDS011;1336;48.692;9.144;2023-04-25T05:00:13;4.77;;;3.70;;
2652;SDS011;1336;48.692;9.144;2023-04-25T05:01:05;4.93;;;4.28;;
2652;SDS011;1336;48.692;9.144;2023-04-25T05:01:57;5.40;;;4.80;;
2652;SDS011;1336;48.692;9.144;2023-04-25T05:02:48;4.82;;;4.43;;
2652;SDS011;1336;48.692;9.144;2023-04-25T05:03:39;4.13;;;3.80;;
2652;SDS011;1336;48.692;9.144;2023-04-25T05:04:31;5.55;;;4.28;;
2652;SDS011;1336;48.692;9.144;2023-04-25T05:05:21;5.23;;;4.27;;
2652;SDS011;1336;48.692;9.144;2023-04-25T05:06:13;4.50;;;3.70;;
2652;SDS011;1336;48.692;9.144;2023-04-25T05:07:04;5.70;;;4.10;;
2652;SDS011;1336;48.692;9.144;2023-04-25T05:07:56;6.15;;;3.67;;
2652;SDS011;1336;48.692;9.144;2023-04-25T05:08:46;4.00;;;3.60;;
2652;SDS011;1336;48.692;9.144;2023-04-25T05:09:39;3.70;;;3.40;;
2652;SDS011;1336;48.692;9.144;2023-04-25T05:10:30;4.57;;;3.87;;
2652;SDS011;1336;48.692;9.144;2023-04-25T05:11:21;3.90;;;3.13;;
2652;SDS011;1336;48.692;9.144;2023-04-25T05:12:13;5.78;;;3.45;;
2652;SDS011;1336;48.692;9.144;2023-04-25T05:13:04;4.55;;;3.72;;
2652;SDS011;1336;48.692;9.144;2023-04-25T05:13:55;3.80;;;3.50;;
2652;SDS011;1336;48.692;9.144;2023-04-25T05:14:47;4.70;;;3.80;;
2652;SDS011;1336;48.692;9.144;2023-04-25T05:15:39;4.23;;;3.67;;
2652;SDS011;1336;48.692;9.144;2023-04-25T05:16:30;3.88;;;3.58;;
2652;SDS011;1336;48.692;9.144;2023-04-25T05:17:21;3.73;;;3.43;;
2652;SDS011;1336;48.692;9.144;2023-04-25T05:18:13;4.10;;;3.50;;
2652;SDS011;1336;48.692;9.144;2023-04-25T05:19:04;4.70;;;4.10;;
2652;SDS011;1336;48.692;9.144;2023-04-25T05:19:55;4.28;;;3.90;;
2652;SDS011;1336;48.692;9.144;2023-04-25T05:20:46;3.47;;;3.13;;
2652;SDS011;1336;48.692;9.144;2023-04-25T05:21:38;5.53;;;3.97;;
2652;SDS011;1336;48.692;9.144;2023-04-25T05:22:28;3.40;;;3.10;;
2652;SDS011;1336;48.692;9.144;2023-04-25T05:23:20;5.35;;;3.53;;
2652;SDS011;1336;48.692;9.144;2023-04-25T05:24:11;3.27;;;2.97;;
2652;SDS011;1336;48.692;9.144;2023-04-25T05:25:03;3.67;;;3.33;;
2652;SDS011;1336;48.692;9.144;2023-04-25T05:25:54;5.13;;;3.22;;
2652;SDS011;1336;48.692;9.144;2023-04-25T05:26:46;4.63;;;3.63;;
2652;SDS011;1336;48.692;9.144;2023-04-25T05:27:37;3.60;;;3.30;;
2652;SDS011;1336;48.692;9.144;2023-04-25T05:28:28;4.43;;;3.95;;
2652;SDS011;1336;48.692;9.144;2023-04-25T05:29:19;7.17;;;3.83;;
2652;SDS011;1336;48.692;9.144;2023-04-25T05:30:11;6.78;;;3.67;;
2652;SDS011;1336;48.692;9.144;2023-04-25T05:31:03;4.83;;;3.90;;
2652;SDS011;1336;48.692;9.144;2023-04-25T05:31:55;4.85;;;3.75;;
2652;SDS011;1336;48.692;9.144;2023-04-25T05:32:46;4.40;;;3.40;;
2652;SDS011;1336;48.692;9.144;2023-04-25T05:33:38;3.63;;;3.33;;
2652;SDS011;1336;48.692;9.144;2023-04-25T05:34:28;3.33;;;3.10;;
2652;SDS011;1336;48.692;9.144;2023-04-25T05:35:20;3.28;;;2.97;;
2652;SDS011;1336;48.692;9.144;2023-04-25T05:36:11;4.20;;;3.37;;
2652;SDS011;1336;48.692;9.144;2023-04-25T05:37:02;4.40;;;3.90;;
2652;SDS011;1336;48.692;9.144;2023-04-25T05:37:53;5.30;;;3.70;;
2652;SDS011;1336;48.692;9.144;2023-04-25T05:38:45;4.95;;;3.45;;
2652;SDS011;1336;48.692;9.144;2023-04-25T05:39:36;4.73;;;3.67;;
2652;SDS011;1336;48.692;9.144;2023-04-25T05:40:27;7.85;;;3.70;;
2652;SDS011;1336;48.692;9.144;2023-04-25T05:41:18;4.63;;;3.70;;
2652;SDS011;1336;48.692;9.144;2023-04-25T05:42:10;4.82;;;3.55;;
2652;SDS011;1336;48.692;9.144;2023-04-25T05:43:01;3.60;;;3.30;;
2652;SDS011;1336;48.692;9.144;2023-04-25T05:43:52;3.83;;;3.53;;
2652;SDS011;1336;48.692;9.144;2023-04-25T05:44:44;5.97;;;4.40;;
2652;SDS011;1336;48.692;9.144;2023-04-25T05:45:35;4.07;;;3.67;;
2652;SDS011;1336;48.692;9.144;2023-04-25T05:46:27;4.27;;;3.30;;
2652;SDS011;1336;48.692;9.144;2023-04-25T05:47:19;4.22;;;3.78;;
2652;SDS011;1336;48.692;9.144;2023-04-25T05:48:10;5.30;;;3.57;;
2652;SDS011;1336;48.692;9.144;2023-04-25T05:49:02;4.90;;;3.70;;
2652;SDS011;1336;48.692;9.144;2023-04-25T05:49:52;4.17;;;3.77;;
2652;SDS011;1336;48.692;9.144;2023-04-25T05:50:44;4.57;;;4.20;;
2652;SDS011;1336;48.692;9.144;2023-04-25T05:51:35;4.60;;;3.67;;
2652;SDS011;1336;48.692;9.144;2023-04-25T05:52:26;4.50;;;3.95;;
2652;SDS011;1336;48.692;9.144;2023-04-25T05:53:17;4.87;;;3.77;;
2652;SDS011;1336;48.692;9.144;2023-04-25T05:54:09;6.32;;;3.65;;
2652;SDS011;1336;48.692;9.144;2023-04-25T05:55:00;3.93;;;3.53;;
2652;SDS011;1336;48.692;9.144;2023-04-25T05:55:51;4.35;;;3.92;;
2652;SDS011;1336;48.692;9.144;2023-04-25T05:56:42;4.30;;;3.53;;
2652;SDS011;1336;48.692;9.144;2023-04-25T05:57:34;8.00;;;4.07;;
2652;SDS011;1336;48.692;9.144;2023-04-25T05:58:25;4.23;;;3.83;;
2652;SDS011;1336;48.692;9.144;2023-04-25T05:59:16;4.28;;;3.83;;
2652;SDS011;1336;48.692;9.144;2023-04-25T06:00:08;6.27;;;4.10;;
2652;SDS011;1336;48.692;9.144;2023-04-25T06:01:01;4.15;;;3.78;;
2652;SDS011;1336;48.692;9.144;2023-04-25T06:01:53;4.90;;;4.10;;
2652;SDS011;1336;48.692;9.144;2023-04-25T06:02:45;7.88;;;4.20;;
2652;SDS011;1336;48.692;9.144;2023-04-25T06:03:36;7.93;;;4.30;;
2652;SDS011;1336;48.692;9.144;2023-04-25T06:04:28;4.40;;;4.00;;
2652;SDS011;1336;48.692;9.144;2023-04-25T06:05:19;4.43;;;4.03;;
2652;SDS011;1336;48.692;9.144;2023-04-25T06:06:11;6.38;;;3.80;;
2652;SDS011;1336;48.692;9.144;2023-04-25T06:07:02;18.20;;;4.90;;
2652;SDS011;1336;48.692;9.144;2023-04-25T06:07:54;7.05;;;4.10;;
2652;SDS011;1336;48.692;9.144;2023-04-25T06:08:44;4.67;;;4.20;;
2652;SDS011;1336;48.692;9.144;2023-04-25T06:09:36;5.05;;;3.88;;
2652;SDS011;1336;48.692;9.144;2023-04-25T06:10:28;3.50;;;3.20;;
2652;SDS011;1336;48.692;9.144;2023-04-25T06:11:20;4.43;;;3.97;;
2652;SDS011;1336;48.692;9.144;2023-04-25T06:12:11;6.00;;;3.90;;
2652;SDS011;1336;48.692;9.144;2023-04-25T06:13:03;4.72;;;3.60;;
2652;SDS011;1336;48.692;9.144;2023-04-25T06:13:54;6.65;;;4.35;;
2652;SDS011;1336;48.692;9.144;2023-04-25T06:14:46;4.95;;;4.55;;
2652;SDS011;1336;48.692;9.144;2023-04-25T06:15:37;4.38;;;3.97;;
2652;SDS011;1336;48.692;9.144;2023-04-25T06:16:29;4.35;;;3.95;;
2652;SDS011;1336;48.692;9.144;2023-04-25T06:17:21;9.43;;;4.10;;
2652;SDS011;1336;48.692;9.144;2023-04-25T06:18:13;6.35;;;4.20;;
2652;SDS011;1336;48.692;9.144;2023-04-25T06:19:03;5.23;;;3.87;;
2652;SDS011;1336;48.692;9.144;2023-04-25T06:19:55;4.28;;;3.88;;
2652;SDS011;1336;48.692;9.144;2023-04-25T06:20:46;5.87;;;4.17;;
2652;SDS011;1336;48.692;9.144;2023-04-25T06:21:37;5.43;;;4.40;;
2652;SDS011;1336;48.692;9.144;2023-04-25T06:22:28;4.07;;;3.67;;
2652;SDS011;1336;48.692;9.144;2023-04-25T06:23:20;5.57;;;3.63;;
2652;SDS011;1336;48.692;9.144;2023-04-25T06:24:10;5.37;;;3.90;;
2652;SDS011;1336;48.692;9.144;2023-04-25T06:25:02;4.32;;;3.60;;
2652;SDS011;1336;48.692;9.144;2023-04-25T06:25:54;7.55;;;4.35;;
2652;SDS011;1336;48.692;9.144;2023-04-25T06:26:46;4.55;;;4.15;;
2652;SDS011;1336;48.692;9.144;2023-04-25T06:27:37;4.63;;;4.13;;
2652;SDS011;1336;48.692;9.144;2023-04-25T06:28:29;4.22;;;3.83;;
2652;SDS011;1336;48.692;9.144;2023-04-25T06:29:20;4.80;;;3.63;;
2652;SDS011;1336;48.692;9.144;2023-04-25T06:30:11;6.00;;;4.20;;
2652;SDS011;1336;48.692;9.144;2023-04-25T06:31:02;4.73;;;4.10;;
2652;SDS011;1336;48.692;9.144;2023-04-25T06:31:54;4.47;;;4.05;;
2652;SDS011;1336;48.692;9.144;2023-04-25T06:32:46;4.80;;;3.40;;
2652;SDS011;1336;48.692;9.144;2023-04-25T06:33:38;4.35;;;4.05;;
2652;SDS011;1336;48.692;9.144;2023-04-25T06:34:29;4.43;;;4.03;;
2652;SDS011;1336;48.692;9.144;2023-04-25T06:35:21;4.32;;;3.70;;
2652;SDS011;1336;48.692;9.144;2023-04-25T06:36:11;4.90;;;4.30;;
2652;SDS011;1336;48.692;9.144;2023-04-25T06:37:03;4.40;;;4.10;;
2652;SDS011;1336;48.692;9.144;2023-04-25T06:37:54;4.43;;;3.90;;
2652;SDS011;1336;48.692;9.144;2023-04-25T06:38:46;4.05;;;3.75;;
2652;SDS011;1336;48.692;9.144;2023-04-25T06:39:36;4.83;;;4.30;;
2652;SDS011;1336;48.692;9.144;2023-04-25T06:40:28;3.90;;;3.60;;
2652;SDS011;1336;48.692;9.144;2023-04-25T06:41:19;5.17;;;3.70;;
2652;SDS011;1336;48.692;9.144;2023-04-25T06:42:11;4.47;;;4.07;;
2652;SDS011;1336;48.692;9.144;2023-04-25T06:43:01;4.43;;;4.03;;
2652;SDS011;1336;48.692;9.144;2023-04-25T06:43:53;3.90;;;3.50;;
2652;SDS011;1336;48.692;9.144;2023-04-25T06:44:44;4.37;;;3.97;;
2652;SDS011;1336;48.692;9.144;2023-04-25T06:45:36;4.43;;;4.00;;
2652;SDS011;1336;48.692;9.144;2023-04-25T06:46:26;4.60;;;3.77;;
2652;SDS011;1336;48.692;9.144;2023-04-25T06:47:18;3.97;;;3.67;;
2652;SDS011;1336;48.692;9.144;2023-04-25T06:48:10;4.30;;;3.80;;
2652;SDS011;1336;48.692;9.144;2023-04-25T06:49:02;4.75;;;4.35;;
2652;SDS011;1336;48.692;9.144;2023-04-25T06:49:52;4.57;;;4.17;;
2652;SDS011;1336;48.692;9.144;2023-04-25T06:50:44;6.00;;;4.25;;
2652;SDS011;1336;48.692;9.144;2023-04-25T06:51:35;10.45;;;4.32;;
2652;SDS011;1336;48.692;9.144;2023-04-25T06:52:27;4.70;;;4.30;;
2652;SDS011;1336;48.692;9.144;2023-04-25T06:53:20;4.50;;;4.10;;
2652;SDS011;1336;48.692;9.144;2023-04-25T06:54:12;4.78;;;4.38;;
2652;SDS011;1336;48.692;9.144;2023-04-25T06:55:03;4.77;;;4.27;;
2652;SDS011;1336;48.692;9.144;2023-04-25T06:55:55;4.45;;;4.00;;
2652;SDS011;1336;48.692;9.144;2023-04-25T06:56:46;4.90;;;4.50;;
2652;SDS011;1336;48.692;9.144;2023-04-25T06:57:38;4.30;;;3.90;;
2652;SDS011;1336;48.692;9.144;2023-04-25T06:58:29;5.00;;;4.60;;
2652;SDS011;1336;48.692;9.144;2023-04-25T06:59:20;4.18;;;3.88;;
2652;SDS011;1336;48.692;9.144;2023-04-25T07:00:11;5.03;;;4.57;;
2652;SDS011;1336;48.692;9.144;2023-04-25T07:01:04;4.60;;;4.20;;
2652;SDS011;1336;48.692;9.144;2023-04-25T07:01:55;4.87;;;4.43;;
2652;SDS011;1336;48.692;9.144;2023-04-25T07:02:46;3.58;;;3.28;;
2652;SDS011;1336;48.692;9.144;2023-04-25T07:03:39;4.87;;;4.37;;
2652;SDS011;1336;48.692;9.144;2023-04-25T07:04:30;5.10;;;4.22;;
2652;SDS011;1336;48.692;9.144;2023-04-25T07:05:21;4.07;;;3.77;;
2652;SDS011;1336;48.692;9.144;2023-04-25T07:06:13;4.40;;;3.78;;
2652;SDS011;1336;48.692;9.144;2023-04-25T07:07:04;3.50;;;3.20;;
2652;SDS011;1336;48.692;9.144;2023-04-25T07:07:55;3.95;;;3.40;;
2652;SDS011;1336;48.692;9.144;2023-04-25T07:08:46;3.57;;;3.27;;
2652;SDS011;1336;48.692;9.144;2023-04-25T07:09:38;4.45;;;3.80;;
2652;SDS011;1336;48.692;9.144;2023-04-25T07:10:28;4.03;;;3.63;;
2652;SDS011;1336;48.692;9.144;2023-04-25T07:11:20;4.30;;;3.95;;
2652;SDS011;1336;48.692;9.144;2023-04-25T07:12:11;4.67;;;3.63;;
2652;SDS011;1336;48.692;9.144;2023-04-25T07:13:03;3.85;;;3.50;;
2652;SDS011;1336;48.692;9.144;2023-04-25T07:13:54;3.45;;;3.17;;
2652;SDS011;1336;48.692;9.144;2023-04-25T07:14:45;4.00;;;3.40;;
2652;SDS011;1336;48.692;9.144;2023-04-25T07:15:37;3.88;;;3.58;;
2652;SDS011;1336;48.692;9.144;2023-04-25T07:16:28;3.83;;;3.53;;
2652;SDS011;1336;48.692;9.144;2023-04-25T07:17:19;3.58;;;3.28;;
2652;SDS011;1336;48.692;9.144;2023-04-25T07:18:10;4.20;;;3.80;;
2652;SDS011;1336;48.692;9.144;2023-04-25T07:19:03;4.25;;;3.47;;
2652;SDS011;1336;48.692;9.144;2023-04-25T07:19:54;3.35;;;3.15;;
2652;SDS011;1336;48.692;9.144;2023-04-25T07:20:46;3.30;;;3.08;;
2652;SDS011;1336;48.692;9.144;2023-04-25T07:21:36;3.27;;;2.97;;
2652;SDS011;1336;48.692;9.144;2023-04-25T07:22:28;4.25;;;3.90;;
2652;SDS011;1336;48.692;9.144;2023-04-25T07:23:19;3.97;;;3.67;;
2652;SDS011;1336;48.692;9.144;2023-04-25T07:24:11;3.78;;;3.45;;
2652;SDS011;1336;48.692;9.144;2023-04-25T07:25:02;3.90;;;3.60;;
2652;SDS011;1336;48.692;9.144;2023-04-25T07:25:54;3.95;;;3.65;;
2652;SDS011;1336;48.692;9.144;2023-04-25T07:26:45;5.25;;;3.78;;
2652;SDS011;1336;48.692;9.144;2023-04-25T07:27:37;4.18;;;3.80;;
2652;SDS011;1336;48.692;9.144;2023-04-25T07:28:29;5.05;;;4.55;;
2652;SDS011;1336;48.692;9.144;2023-04-25T07:29:21;3.83;;;3.45;;
2652;SDS011;1336;48.692;9.144;2023-04-25T07:30:12;3.37;;;3.07;;
2652;SDS011;1336;48.692;9.144;2023-04-25T07:31:04;4.32;;;3.67;;
2652;SDS011;1336;48.692;9.144;2023-04-25T07:31:55;4.07;;;3.78;;
2652;SDS011;1336;48.692;9.144;2023-04-25T07:32:46;4.03;;;3.72;;
2652;SDS011;1336;48.692;9.144;2023-04-25T07:33:37;4.10;;;3.80;;
2652;SDS011;1336;48.692;9.144;2023-04-25T07:34:30;4.00;;;3.70;;
2652;SDS011;1336;48.692;9.144;2023-04-25T07:35:22;4.63;;;4.22;;
2652;SDS011;1336;48.692;9.144;2023-04-25T07:36:13;4.38;;;3.97;;
2652;SDS011;1336;48.692;9.144;2023-04-25T07:37:05;4.60;;;4.18;;
2652;SDS011;1336;48.692;9.144;2023-04-25T07:37:56;3.70;;;3.40;;
2652;SDS011;1336;48.692;9.144;2023-04-25T07:38:48;4.45;;;4.05;;
2652;SDS011;1336;48.692;9.144;2023-04-25T07:39:40;4.05;;;3.65;;
2652;SDS011;1336;48.692;9.144;2023-04-25T07:40:31;4.35;;;3.95;;
2652;SDS011;1336;48.692;9.144;2023-04-25T07:41:24;4.05;;;3.75;;
2652;SDS011;1336;48.692;9.144;2023-04-25T07:42:14;3.80;;;3.50;;
2652;SDS011;1336;48.692;9.144;2023-04-25T07:43:06;3.80;;;3.50;;
2652;SDS011;1336;48.692;9.144;2023-04-25T07:43:57;4.00;;;3.70;;
2652;SDS011;1336;48.692;9.144;2023-04-25T07:44:48;4.93;;;4.22;;
2652;SDS011;1336;48.692;9.144;2023-04-25T07:45:41;3.95;;;3.63;;
2652;SDS011;1336;48.692;9.144;2023-04-25T07:46:33;4.57;;;4.18;;
2652;SDS011;1336;48.692;9.144;2023-04-25T07:47:24;3.97;;;3.67;;
2652;SDS011;1336;48.692;9.144;2023-04-25T07:48:16;4.57;;;3.78;;
2652;SDS011;1336;48.692;9.144;2023-04-25T07:49:08;4.30;;;4.00;;
2652;SDS011;1336;48.692;9.144;2023-04-25T07:50:01;4.70;;;3.67;;
2652;SDS011;1336;48.692;9.144;2023-04-25T07:50:52;4.90;;;4.40;;
2652;SDS011;1336;48.692;9.144;2023-04-25T07:51:44;4.43;;;4.03;;
2652;SDS011;1336;48.692;9.144;2023-04-25T07:52:35;4.17;;;3.77;;
2652;SDS011;1336;48.692;9.144;2023-04-25T07:53:26;4.80;;;4.35;;
2652;SDS011;1336;48.692;9.144;2023-04-25T07:54:17;4.87;;;3.57;;
2652;SDS011;1336;48.692;9.144;2023-04-25T07:55:09;4.47;;;4.07;;
2652;SDS011;1336;48.692;9.144;2023-04-25T07:56:00;4.40;;;4.00;;
2652;SDS011;1336;48.692;9.144;2023-04-25T07:56:51;3.80;;;3.50;;
2652;SDS011;1336;48.692;9.144;2023-04-25T07:57:42;6.93;;;4.40;;
2652;SDS011;1336;48.692;9.144;2023-04-25T07:58:34;4.63;;;4.20;;
2652;SDS011;1336;48.692;9.144;2023-04-25T07:59:24;4.33;;;4.03;;
2652;SDS011;1336;48.692;9.144;2023-04-25T08:00:16;4.35;;;4.05;;
2652;SDS011;1336;48.692;9.144;2023-04-25T08:01:08;4.80;;;4.00;;
2652;SDS011;1336;48.692;9.144;2023-04-25T08:01:59;4.43;;;4.03;;
2652;SDS011;1336;48.692;9.144;2023-04-25T08:02:50;6.80;;;4.13;;
2652;SDS011;1336;48.692;9.144;2023-04-25T08:03:42;4.60;;;4.20;;
2652;SDS011;1336;48.692;9.144;2023-04-25T08:04:33;5.07;;;4.57;;
2652;SDS011;1336;48.692;9.144;2023-04-25T08:05:26;5.20;;;4.13;;
2652;SDS011;1336;48.692;9.144;2023-04-25T08:06:16;4.28;;;3.97;;
2652;SDS011;1336;48.692;9.144;2023-04-25T08:07:08;4.80;;;4.38;;
2652;SDS011;1336;48.692;9.144;2023-04-25T08:07:59;4.63;;;4.23;;
2652;SDS011;1336;48.692;9.144;2023-04-25T08:08:52;4.93;;;4.53;;
2652;SDS011;1336;48.692;9.144;2023-04-25T08:09:42;4.90;;;4.40;;
2652;SDS011;1336;48.692;9.144;2023-04-25T08:10:34;4.47;;;4.07;;
2652;SDS011;1336;48.692;9.144;2023-04-25T08:11:25;5.13;;;4.00;;
2652;SDS011;1336;48.692;9.144;2023-04-25T08:12:17;4.47;;;4.00;;
2652;SDS011;1336;48.692;9.144;2023-04-25T08:13:07;4.73;;;4.33;;
2652;SDS011;1336;48.692;9.144;2023-04-25T08:13:59;4.22;;;3.92;;
2652;SDS011;1336;48.692;9.144;2023-04-25T08:14:50;4.70;;;4.20;;
2652;SDS011;1336;48.692;9.144;2023-04-25T08:15:41;5.50;;;4.30;;
2652;SDS011;1336;48.692;9.144;2023-04-25T08:16:32;4.50;;;4.00;;
2652;SDS011;1336;48.692;9.144;2023-04-25T08:17:24;4.88;;;4.47;;
2652;SDS011;1336;48.692;9.144;2023-04-25T08:18:15;4.77;;;4.37;;
2652;SDS011;1336;48.692;9.144;2023-04-25T08:19:07;4.85;;;4.25;;
2652;SDS011;1336;48.692;9.144;2023-04-25T08:19:58;6.03;;;5.03;;
2652;SDS011;1336;48.692;9.144;2023-04-25T08:20:51;4.78;;;4.38;;
2652;SDS011;1336;48.692;9.144;2023-04-25T08:21:41;4.50;;;4.10;;
2652;SDS011;1336;48.692;9.144;2023-04-25T08:22:33;4.70;;;4.20;;
2652;SDS011;1336;48.692;9.144;2023-04-25T08:23:24;4.18;;;3.85;;
2652;SDS011;1336;48.692;9.144;2023-04-25T08:24:16;4.88;;;4.18;;
2652;SDS011;1336;48.692;9.144;2023-04-25T08:25:08;5.38;;;4.25;;
2652;SDS011;1336;48.692;9.144;2023-04-25T08:25:59;4.60;;;4.30;;
2652;SDS011;1336;48.692;9.144;2023-04-25T08:26:51;5.05;;;4.65;;
2652;SDS011;1336;48.692;9.144;2023-04-25T08:27:42;6.53;;;4.60;;
2652;SDS011;1336;48.692;9.144;2023-04-25T08:28:34;5.43;;;4.95;;
2652;SDS011;1336;48.692;9.144;2023-04-25T08:29:25;5.80;;;5.00;;
2652;SDS011;1336;48.692;9.144;2023-04-25T08:30:18;5.43;;;4.85;;
2652;SDS011;1336;48.692;9.144;2023-04-25T08:31:09;5.00;;;4.60;;
2652;SDS011;1336;48.692;9.144;2023-04-25T08:32:00;5.18;;;4.68;;
2652;SDS011;1336;48.692;9.144;2023-04-25T08:32:51;5.33;;;4.40;;
2652;SDS011;1336;48.692;9.144;2023-04-25T08:33:43;8.20;;;5.15;;
2652;SDS011;1336;48.692;9.144;2023-04-25T08:34:34;4.38;;;4.07;;
2652;SDS011;1336;48.692;9.144;2023-04-25T08:35:26;4.85;;;4.43;;
2652;SDS011;1336;48.692;9.144;2023-04-25T08:36:18;11.47;;;5.27;;
2652;SDS011;1336;48.692;9.144;2023-04-25T08:37:10;4.80;;;4.40;;
2652;SDS011;1336;48.692;9.144;2023-04-25T08:38:01;5.23;;;4.73;;
2652;SDS011;1336;48.692;9.144;2023-04-25T08:38:53;6.68;;;4.43;;
2652;SDS011;1336;48.692;9.144;2023-04-25T08:39:44;4.90;;;4.40;;
2652;SDS011;1336;48.692;9.144;2023-04-25T08:40:37;4.68;;;4.28;;
2652;SDS011;1336;48.692;9.144;2023-04-25T08:41:29;4.50;;;4.10;;
2652;SDS011;1336;48.692;9.144;2023-04-25T08:42:21;5.30;;;4.68;;
2652;SDS011;1336;48.692;9.144;2023-04-25T08:43:14;4.88;;;4.40;;
2652;SDS011;1336;48.692;9.144;2023-04-25T08:44:08;5.25;;;4.75;;
2652;SDS011;1336;48.692;9.144;2023-04-25T08:45:01;6.43;;;5.20;;
2652;SDS011;1336;48.692;9.144;2023-04-25T08:45:53;6.07;;;4.70;;
2652;SDS011;1336;48.692;9.144;2023-04-25T08:46:49;5.22;;;4.72;;
2652;SDS011;1336;48.692;9.144;2023-04-25T08:47:43;5.10;;;4.57;;
2652;SDS011;1336;48.692;9.144;2023-04-25T08:48:35;4.90;;;4.40;;
2652;SDS011;1336;48.692;9.144;2023-04-25T08:49:27;4.70;;;4.40;;
2652;SDS011;1336;48.692;9.144;2023-04-25T08:50:19;4.85;;;4.43;;
2652;SDS011;1336;48.692;9.144;2023-04-25T08:51:15;5.03;;;4.63;;
2652;SDS011;1336;48.692;9.144;2023-04-25T08:52:12;6.00;;;4.63;;
2652;SDS011;1336;48.692;9.144;2023-04-25T08:53:04;5.68;;;5.20;;
2652;SDS011;1336;48.692;9.144;2023-04-25T08:54:01;5.55;;;4.70;;
2652;SDS011;1336;48.692;9.144;2023-04-25T08:54:59;6.05;;;4.60;;
2652;SDS011;1336;48.692;9.144;2023-04-25T08:55:52;5.88;;;5.38;;
2652;SDS011;1336;48.692;9.144;2023-04-25T08:56:45;5.43;;;4.90;;
2652;SDS011;1336;48.692;9.144;2023-04-25T08:57:38;4.75;;;4.35;;
2652;SDS011;1336;48.692;9.144;2023-04-25T08:58:32;5.72;;;5.13;;
2652;SDS011;1336;48.692;9.144;2023-04-25T08:59:24;5.85;;;5.35;;
2652;SDS011;1336;48.692;9.144;2023-04-25T09:00:16;5.28;;;4.82;;
2652;SDS011;1336;48.692;9.144;2023-04-25T09:01:08;6.28;;;5.68;;
2652;SDS011;1336;48.692;9.144;2023-04-25T09:02:00;5.32;;;4.93;;
2652;SDS011;1336;48.692;9.144;2023-04-25T09:02:52;5.55;;;4.88;;
2652;SDS011;1336;48.692;9.144;2023-04-25T09:03:44;5.75;;;5.25;;
2652;SDS011;1336;48.692;9.144;2023-04-25T09:04:37;5.75;;;5.28;;
2652;SDS011;1336;48.692;9.144;2023-04-25T09:05:28;5.60;;;5.10;;
2652;SDS011;1336;48.692;9.144;2023-04-25T09:06:20;5.38;;;4.97;;
2652;SDS011;1336;48.692;9.144;2023-04-25T09:07:13;6.00;;;5.40;;
2652;SDS011;1336;48.692;9.144;2023-04-25T09:08:08;5.75;;;5.25;;
2652;SDS011;1336;48.692;9.144;2023-04-25T09:09:01;5.50;;;5.00;;
2652;SDS011;1336;48.692;9.144;2023-04-25T09:09:54;7.88;;;5.60;;
2652;SDS011;1336;48.692;9.144;2023-04-25T09:10:45;10.27;;;5.90;;
2652;SDS011;1336;48.692;9.144;2023-04-25T09:11:37;6.25;;;5.70;;
2652;SDS011;1336;48.692;9.144;2023-04-25T09:12:28;7.80;;;5.38;;
2652;SDS011;1336;48.692;9.144;2023-04-25T09:13:24;6.45;;;4.68;;
2652;SDS011;1336;48.692;9.144;2023-04-25T09:14:16;8.35;;;5.00;;
2652;SDS011;1336;48.692;9.144;2023-04-25T09:15:11;6.43;;;5.60;;
2652;SDS011;1336;48.692;9.144;2023-04-25T09:16:03;10.90;;;5.47;;
2652;SDS011;1336;48.692;9.144;2023-04-25T09:16:58;7.93;;;5.13;;
2652;SDS011;1336;48.692;9.144;2023-04-25T09:17:54;6.13;;;5.25;;
2652;SDS011;1336;48.692;9.144;2023-04-25T09:18:47;5.80;;;5.30;;
2652;SDS011;1336;48.692;9.144;2023-04-25T09:19:39;6.90;;;4.53;;
2652;SDS011;1336;48.692;9.144;2023-04-25T09:20:30;5.90;;;5.17;;
2652;SDS011;1336;48.692;9.144;2023-04-25T09:21:22;5.30;;;4.80;;
2652;SDS011;1336;48.692;9.144;2023-04-25T09:22:14;5.90;;;5.40;;
2652;SDS011;1336;48.692;9.144;2023-04-25T09:23:11;6.03;;;4.88;;
2652;SDS011;1336;48.692;9.144;2023-04-25T09:24:02;4.90;;;4.50;;
2652;SDS011;1336;48.692;9.144;2023-04-25T09:24:55;8.45;;;5.15;;
2652;SDS011;1336;48.692;9.144;2023-04-25T09:25:47;5.22;;;4.82;;
2652;SDS011;1336;48.692;9.144;2023-04-25T09:26:38;8.65;;;5.70;;
2652;SDS011;1336;48.692;9.144;2023-04-25T09:27:30;4.97;;;4.45;;
2652;SDS011;1336;48.692;9.144;2023-04-25T09:28:24;7.03;;;5.68;;
2652;SDS011;1336;48.692;9.144;2023-04-25T09:29:17;5.60;;;5.10;;
2652;SDS011;1336;48.692;9.144;2023-04-25T09:30:08;5.50;;;5.00;;
2652;SDS011;1336;48.692;9.144;2023-04-25T09:31:00;5.35;;;4.95;;
2652;SDS011;1336;48.692;9.144;2023-04-25T09:31:51;5.10;;;4.60;;
2652;SDS011;1336;48.692;9.144;2023-04-25T09:32:43;5.45;;;4.78;;
2652;SDS011;1336;48.692;9.144;2023-04-25T09:33:35;5.50;;;5.10;;
2652;SDS011;1336;48.692;9.144;2023-04-25T09:34:26;5.57;;;4.90;;
2652;SDS011;1336;48.692;9.144;2023-04-25T09:35:23;4.68;;;4.30;;
2652;SDS011;1336;48.692;9.144;2023-04-25T09:36:16;5.15;;;4.65;;
2652;SDS011;1336;48.692;9.144;2023-04-25T09:37:07;4.53;;;4.13;;
2652;SDS011;1336;48.692;9.144;2023-04-25T09:38:00;4.40;;;4.10;;
2652;SDS011;1336;48.692;9.144;2023-04-25T09:38:53;4.60;;;4.20;;
2652;SDS011;1336;48.692;9.144;2023-04-25T09:39:44;4.60;;;4.20;;
2652;SDS011;1336;48.692;9.144;2023-04-25T09:40:39;5.53;;;4.40;;
2652;SDS011;1336;48.692;9.144;2023-04-25T09:41:30;4.30;;;3.90;;
2652;SDS011;1336;48.692;9.144;2023-04-25T09:42:22;4.43;;;4.03;;
2652;SDS011;1336;48.692;9.144;2023-04-25T09:43:18;4.32;;;3.97;;
2652;SDS011;1336;48.692;9.144;2023-04-25T09:44:12;4.30;;;4.00;;
2652;SDS011;1336;48.692;9.144;2023-04-25T09:45:03;4.20;;;3.90;;
2652;SDS011;1336;48.692;9.144;2023-04-25T09:45:55;4.28;;;3.97;;
2652;SDS011;1336;48.692;9.144;2023-04-25T09:46:49;4.22;;;3.90;;
2652;SDS011;1336;48.692;9.144;2023-04-25T09:47:43;3.85;;;3.58;;
2652;SDS011;1336;48.692;9.144;2023-04-25T09:48:36;4.40;;;4.10;;
2652;SDS011;1336;48.692;9.144;2023-04-25T09:49:27;4.40;;;4.00;;
2652;SDS011;1336;48.692;9.144;2023-04-25T09:50:18;3.90;;;3.60;;
2652;SDS011;1336;48.692;9.144;2023-04-25T09:51:11;4.25;;;3.95;;
2652;SDS011;1336;48.692;9.144;2023-04-25T09:52:03;4.85;;;4.45;;
2652;SDS011;1336;48.692;9.144;2023-04-25T09:53:03;4.18;;;3.78;;
2652;SDS011;1336;48.692;9.144;2023-04-25T09:53:55;5.32;;;3.50;;
2652;SDS011;1336;48.692;9.144;2023-04-25T09:54:47;3.33;;;3.13;;
2652;SDS011;1336;48.692;9.144;2023-04-25T09:55:39;3.70;;;3.40;;
2652;SDS011;1336;48.692;9.144;2023-04-25T09:56:32;4.70;;;3.35;;
2652;SDS011;1336;48.692;9.144;2023-04-25T09:57:27;3.72;;;3.33;;
2652;SDS011;1336;48.692;9.144;2023-04-25T09:58:18;3.60;;;3.30;;
2652;SDS011;1336;48.692;9.144;2023-04-25T09:59:11;3.72;;;3.42;;
2652;SDS011;1336;48.692;9.144;2023-04-25T10:00:02;3.53;;;3.22;;
2652;SDS011;1336;48.692;9.144;2023-04-25T10:01:01;3.70;;;3.40;;
2652;SDS011;1336;48.692;9.144;2023-04-25T10:01:53;3.70;;;3.40;;
2652;SDS011;1336;48.692;9.144;2023-04-25T10:02:47;3.55;;;3.25;;
2652;SDS011;1336;48.692;9.144;2023-04-25T10:03:39;3.42;;;3.00;;
2652;SDS011;1336;48.692;9.144;2023-04-25T10:04:31;4.63;;;3.70;;
2652;SDS011;1336;48.692;9.144;2023-04-25T10:05:25;3.28;;;3.08;;
2652;SDS011;1336;48.692;9.144;2023-04-25T10:06:19;3.40;;;3.10;;
2652;SDS011;1336;48.692;9.144;2023-04-25T10:07:11;3.00;;;2.70;;
2652;SDS011;1336;48.692;9.144;2023-04-25T10:08:05;2.90;;;2.70;;
2652;SDS011;1336;48.692;9.144;2023-04-25T10:08:58;2.90;;;2.70;;
2652;SDS011;1336;48.692;9.144;2023-04-25T10:09:50;2.90;;;2.70;;
2652;SDS011;1336;48.692;9.144;2023-04-25T10:10:46;3.25;;;3.05;;
2652;SDS011;1336;48.692;9.144;2023-04-25T10:11:38;3.38;;;3.08;;
2652;SDS011;1336;48.692;9.144;2023-04-25T10:12:32;3.50;;;3.20;;
2652;SDS011;1336;48.692;9.144;2023-04-25T10:13:24;2.47;;;2.35;;
2652;SDS011;1336;48.692;9.144;2023-04-25T10:14:16;3.30;;;3.10;;
2652;SDS011;1336;48.692;9.144;2023-04-25T10:15:09;2.90;;;2.70;;
2652;SDS011;1336;48.692;9.144;2023-04-25T10:16:02;2.80;;;2.60;;
2652;SDS011;1336;48.692;9.144;2023-04-25T10:16:55;3.38;;;2.90;;
2652;SDS011;1336;48.692;9.144;2023-04-25T10:17:47;2.90;;;2.70;;
2652;SDS011;1336;48.692;9.144;2023-04-25T10:18:40;2.92;;;2.72;;
2652;SDS011;1336;48.692;9.144;2023-04-25T10:19:31;3.00;;;2.80;;
2652;SDS011;1336;48.692;9.144;2023-04-25T10:20:23;3.00;;;2.20;;
2652;SDS011;1336;48.692;9.144;2023-04-25T10:21:14;2.45;;;2.25;;
2652;SDS011;1336;48.692;9.144;2023-04-25T10:22:08;2.78;;;2.58;;